createdAt,value
2018-07-10T00:04:06.611Z,81.00
2018-07-10T00:08:48.649Z,80.90
2018-07-10T00:11:24.747Z,80.70
2018-07-10T00:13:54.291Z,80.90
2018-07-10T00:16:23.855Z,80.80
2018-07-10T00:18:54.424Z,80.60
2018-07-10T00:21:23.891Z,80.30
2018-07-10T00:23:53.028Z,80.70
2018-07-10T00:26:22.526Z,80.70
2018-07-10T00:28:51.805Z,81.00
2018-07-10T00:31:21.639Z,81.90
2018-07-10T00:33:50.713Z,82.30
2018-07-10T00:36:20.390Z,82.00
2018-07-10T00:39:01.728Z,83.00
2018-07-10T00:41:32.572Z,83.00
2018-07-10T00:44:02.851Z,83.20
2018-07-10T00:46:33.846Z,82.80
2018-07-10T00:49:03.483Z,82.70
2018-07-10T00:51:40.619Z,82.40
2018-07-10T00:54:10.143Z,82.30
2018-07-10T00:59:08.172Z,82.20
2018-07-10T01:01:37.595Z,83.10
2018-07-10T01:04:06.823Z,83.70
2018-07-10T01:06:35.895Z,83.70
2018-07-10T01:09:05.142Z,83.60
2018-07-10T01:11:34.356Z,83.80
2018-07-10T01:14:03.783Z,84.20
2018-07-10T01:16:34.928Z,84.80
2018-07-10T01:19:08.527Z,85.30
2018-07-10T01:21:38.916Z,85.10
2018-07-10T01:24:08.031Z,85.40
2018-07-10T01:26:39.634Z,86.00
2018-07-10T01:29:16.795Z,86.30
2018-07-10T01:34:16.239Z,87.00
2018-07-10T01:36:45.607Z,87.50
2018-07-10T01:39:14.831Z,88.30
2018-07-10T01:41:44.484Z,88.90
2018-07-10T01:44:14.025Z,89.30
2018-07-10T01:46:43.620Z,89.80
2018-07-10T01:49:12.765Z,90.10
2018-07-10T01:51:42.577Z,90.20
2018-07-10T01:56:40.566Z,90.70
2018-07-10T01:59:09.908Z,91.00
2018-07-10T02:01:39.071Z,91.50
2018-07-10T02:04:08.832Z,91.50
2018-07-10T02:06:38.705Z,91.90
2018-07-10T02:09:07.836Z,92.20
2018-07-10T02:11:37.287Z,92.70
2018-07-10T02:14:06.551Z,93.00
2018-07-10T02:16:36.159Z,93.10
2018-07-10T02:19:05.772Z,93.40
2018-07-10T02:21:34.884Z,93.70
2018-07-10T02:24:04.636Z,94.10
2018-07-10T02:26:34.176Z,94.60
2018-07-10T02:29:03.660Z,95.00
2018-07-10T02:31:33.025Z,95.20
2018-07-10T02:34:02.644Z,95.80
2018-07-10T02:36:32.286Z,95.90
2018-07-10T02:39:01.792Z,96.10
2018-07-10T02:41:31.590Z,96.80
2018-07-10T02:44:02.576Z,97.30
2018-07-10T02:46:34.374Z,97.70
2018-07-10T02:49:11.068Z,98.10
2018-07-10T02:51:55.247Z,98.50
2018-07-10T02:54:27.023Z,98.50
2018-07-10T02:56:57.805Z,98.90
2018-07-10T02:59:33.640Z,99.40
2018-07-10T03:02:04.529Z,99.60
2018-07-10T03:04:35.468Z,99.90
2018-07-10T03:07:05.105Z,99.90
2018-07-10T03:09:34.823Z,99.90
2018-07-10T03:12:04.755Z,99.90
2018-07-10T03:14:33.937Z,99.90
2018-07-10T03:17:03.056Z,99.90
2018-07-10T03:19:32.382Z,99.90
2018-07-10T03:22:03.560Z,99.90
2018-07-10T03:24:33.412Z,99.90
2018-07-10T03:27:04.187Z,99.90
2018-07-10T03:29:33.894Z,99.90
2018-07-10T03:32:04.001Z,99.90
2018-07-10T03:34:33.379Z,99.90
2018-07-10T03:39:32.469Z,99.90
2018-07-10T03:42:01.819Z,99.90
2018-07-10T03:44:31.174Z,99.90
2018-07-10T03:47:00.574Z,99.90
2018-07-10T03:49:30.061Z,99.90
2018-07-10T03:52:01.894Z,99.90
2018-07-10T03:54:33.338Z,99.90
2018-07-10T03:57:03.928Z,99.90
2018-07-10T03:59:35.583Z,99.90
2018-07-10T04:02:05.447Z,99.90
2018-07-10T04:04:34.588Z,99.90
2018-07-10T04:07:03.997Z,99.90
2018-07-10T04:09:33.479Z,99.90
2018-07-10T04:12:03.219Z,99.90
2018-07-10T04:14:32.915Z,99.90
2018-07-10T04:17:02.980Z,99.90
2018-07-10T04:19:32.689Z,99.90
2018-07-10T04:22:02.251Z,99.90
2018-07-10T04:24:31.470Z,99.90
2018-07-10T04:27:08.307Z,99.90
2018-07-10T04:29:50.166Z,99.90
2018-07-10T04:32:19.313Z,99.90
2018-07-10T04:34:48.892Z,99.90
2018-07-10T04:37:18.321Z,99.90
2018-07-10T04:39:47.796Z,99.90
2018-07-10T04:42:33.636Z,99.90
2018-07-10T04:45:06.578Z,99.90
2018-07-10T04:47:40.417Z,99.90
2018-07-10T04:50:14.229Z,99.90
2018-07-10T04:52:47.523Z,99.90
2018-07-10T04:55:16.957Z,99.90
2018-07-10T04:58:01.580Z,99.90
2018-07-10T05:00:31.754Z,99.90
2018-07-10T05:03:01.919Z,99.90
2018-07-10T05:05:32.621Z,99.90
2018-07-10T05:08:03.304Z,99.90
2018-07-10T05:10:34.444Z,99.90
2018-07-10T05:13:05.333Z,99.90
2018-07-10T05:15:35.401Z,99.90
2018-07-10T05:18:08.509Z,99.90
2018-07-10T05:20:40.200Z,99.90
2018-07-10T05:23:09.445Z,99.90
2018-07-10T05:25:41.030Z,99.90
2018-07-10T05:28:10.471Z,99.90
2018-07-10T05:30:41.185Z,99.90
2018-07-10T05:33:12.002Z,99.90
2018-07-10T05:35:42.559Z,99.90
2018-07-10T05:38:11.852Z,99.90
2018-07-10T05:40:41.220Z,99.90
2018-07-10T05:43:15.088Z,99.90
2018-07-10T05:45:44.776Z,99.90
2018-07-10T05:48:16.876Z,99.90
2018-07-10T05:50:46.091Z,99.90
2018-07-10T05:53:15.140Z,99.90
2018-07-10T05:55:46.802Z,99.90
2018-07-10T05:58:15.915Z,99.90
2018-07-10T06:00:45.042Z,99.90
2018-07-10T06:03:14.517Z,99.90
2018-07-10T06:05:44.203Z,99.90
2018-07-10T06:08:13.606Z,99.90
2018-07-10T06:10:43.343Z,99.90
2018-07-10T06:13:12.493Z,99.90
2018-07-10T06:15:42.123Z,99.90
2018-07-10T06:18:11.169Z,99.90
2018-07-10T06:20:41.439Z,99.90
2018-07-10T06:25:40.353Z,99.90
2018-07-10T06:28:13.107Z,99.90
2018-07-10T06:30:42.411Z,99.90
2018-07-10T06:33:23.668Z,99.90
2018-07-10T06:36:06.280Z,99.90
2018-07-10T06:38:41.656Z,99.90
2018-07-10T06:41:11.743Z,99.90
2018-07-10T06:43:49.232Z,99.90
2018-07-10T06:46:22.340Z,99.90
2018-07-10T06:48:54.344Z,99.90
2018-07-10T06:51:23.721Z,99.90
2018-07-10T06:53:55.761Z,99.90
2018-07-10T06:56:26.955Z,99.90
2018-07-10T06:58:56.872Z,99.90
2018-07-10T07:01:26.215Z,99.90
2018-07-10T07:03:58.921Z,99.90
2018-07-10T07:06:28.387Z,99.90
2018-07-10T07:08:58.052Z,99.90
2018-07-10T07:11:27.565Z,99.90
2018-07-10T07:13:56.969Z,99.90
2018-07-10T07:16:26.526Z,99.90
2018-07-10T07:18:55.586Z,99.90
2018-07-10T07:21:24.979Z,99.90
2018-07-10T07:23:54.422Z,99.90
2018-07-10T07:26:23.972Z,99.90
2018-07-10T07:28:53.393Z,99.90
2018-07-10T07:31:22.571Z,99.90
2018-07-10T07:33:54.020Z,99.90
2018-07-10T07:36:23.374Z,99.90
2018-07-10T07:38:52.484Z,99.90
2018-07-10T07:41:22.545Z,99.90
2018-07-10T07:43:52.442Z,99.90
2018-07-10T07:46:21.793Z,99.90
2018-07-10T07:48:51.090Z,99.90
2018-07-10T07:51:22.718Z,99.90
2018-07-10T07:53:52.840Z,99.90
2018-07-10T07:56:22.019Z,99.90
2018-07-10T07:58:51.463Z,99.90
2018-07-10T08:01:21.853Z,97.10
2018-07-10T08:03:51.702Z,94.70
2018-07-10T08:06:21.324Z,93.10
2018-07-10T08:08:50.801Z,93.40
2018-07-10T08:11:20.463Z,94.40
2018-07-10T08:13:50.388Z,95.10
2018-07-10T08:16:20.807Z,94.50
2018-07-10T08:18:50.455Z,94.50
2018-07-10T08:21:20.043Z,93.70
2018-07-10T08:23:49.541Z,92.70
2018-07-10T08:26:19.187Z,93.00
2018-07-10T08:28:48.327Z,92.00
2018-07-10T08:31:17.526Z,92.00
2018-07-10T08:33:46.885Z,92.90
2018-07-10T08:36:16.116Z,93.10
2018-07-10T08:41:20.216Z,93.40
2018-07-10T08:43:49.689Z,93.80
2018-07-10T08:46:25.628Z,93.60
2018-07-10T08:48:55.317Z,93.70
2018-07-10T08:53:55.253Z,95.30
2018-07-10T08:56:24.995Z,94.10
2018-07-10T08:58:54.488Z,94.10
2018-07-10T09:01:23.739Z,94.40
2018-07-10T09:03:53.141Z,94.90
2018-07-10T09:06:22.647Z,94.60
2018-07-10T09:08:51.699Z,94.50
2018-07-10T09:11:21.131Z,95.40
2018-07-10T09:13:50.482Z,96.00
2018-07-10T09:16:20.197Z,95.80
2018-07-10T09:18:49.917Z,96.20
2018-07-10T09:21:19.265Z,97.50
2018-07-10T09:23:48.759Z,99.50
2018-07-10T09:26:17.927Z,99.90
2018-07-10T09:28:47.346Z,99.90
2018-07-10T09:31:16.378Z,99.90
2018-07-10T09:33:45.620Z,99.90
2018-07-10T09:36:14.742Z,99.60
2018-07-10T09:38:43.921Z,98.00
2018-07-10T09:41:13.158Z,98.20
2018-07-10T09:43:44.108Z,97.00
2018-07-10T09:46:13.240Z,93.70
2018-07-10T09:48:42.414Z,88.30
2018-07-10T09:51:11.798Z,83.90
2018-07-10T09:53:41.289Z,86.40
2018-07-10T09:56:10.676Z,85.60
2018-07-10T09:58:39.951Z,81.10
2018-07-10T10:01:14.424Z,76.20
2018-07-10T10:03:43.628Z,73.30
2018-07-10T10:06:12.987Z,71.00
2018-07-10T10:08:42.126Z,70.80
2018-07-10T10:11:11.570Z,72.10
2018-07-10T10:13:40.948Z,72.50
2018-07-10T10:16:10.123Z,71.80
2018-07-10T10:18:39.529Z,72.70
2018-07-10T10:21:08.664Z,73.70
2018-07-10T10:23:37.799Z,73.80
2018-07-10T10:26:06.917Z,75.70
2018-07-10T10:28:35.943Z,74.50
2018-07-10T10:31:05.419Z,71.10
2018-07-10T10:33:34.720Z,69.70
2018-07-10T10:36:03.784Z,71.20
2018-07-10T10:38:34.790Z,73.00
2018-07-10T10:41:04.240Z,72.80
2018-07-10T10:43:33.616Z,74.50
2018-07-10T10:46:02.739Z,76.20
2018-07-10T10:48:31.892Z,79.10
2018-07-10T10:51:01.168Z,79.00
2018-07-10T10:53:30.336Z,80.80
2018-07-10T10:56:00.167Z,80.90
2018-07-10T10:58:29.817Z,79.90
2018-07-10T11:00:59.052Z,80.30
2018-07-10T11:03:28.533Z,82.00
2018-07-10T11:05:57.679Z,83.20
2018-07-10T11:08:26.943Z,83.30
2018-07-10T11:10:56.151Z,83.20
2018-07-10T11:13:25.342Z,83.80
2018-07-10T11:15:54.570Z,84.40
2018-07-10T11:18:30.135Z,84.60
2018-07-10T11:21:11.607Z,85.30
2018-07-10T11:23:46.748Z,84.60
2018-07-10T11:26:27.488Z,85.90
2018-07-10T11:28:56.603Z,86.60
2018-07-10T11:31:25.986Z,87.50
2018-07-10T11:33:55.430Z,89.50
2018-07-10T11:36:24.726Z,90.40
2018-07-10T11:38:56.578Z,90.90
2018-07-10T11:41:26.083Z,91.20
2018-07-10T11:43:55.528Z,91.60
2018-07-10T11:46:24.693Z,91.60
2018-07-10T11:48:54.192Z,91.00
2018-07-10T11:51:23.563Z,90.00
2018-07-10T11:53:53.057Z,86.80
2018-07-10T11:56:22.556Z,82.30
2018-07-10T11:58:52.062Z,78.60
2018-07-10T12:01:21.557Z,74.90
2018-07-10T12:03:50.957Z,72.30
2018-07-10T12:06:20.482Z,72.80
2018-07-10T12:08:52.363Z,72.30
2018-07-10T12:11:22.054Z,71.40
2018-07-10T12:13:51.871Z,73.70
2018-07-10T12:16:21.321Z,75.10
2018-07-10T12:18:50.839Z,75.90
2018-07-10T12:21:20.911Z,75.80
2018-07-10T12:23:50.357Z,75.20
2018-07-10T12:26:19.768Z,77.60
2018-07-10T12:28:49.248Z,79.10
2018-07-10T12:31:18.537Z,81.30
2018-07-10T12:33:48.361Z,84.20
2018-07-10T12:36:17.985Z,86.10
2018-07-10T12:38:47.335Z,87.40
2018-07-10T12:41:17.024Z,89.50
2018-07-10T12:43:46.954Z,90.60
2018-07-10T12:46:16.062Z,91.40
2018-07-10T12:48:45.455Z,91.90
2018-07-10T12:51:14.893Z,93.00
2018-07-10T12:53:44.190Z,93.10
2018-07-10T12:56:13.443Z,93.10
2018-07-10T12:58:43.327Z,91.70
2018-07-10T13:01:12.699Z,89.20
2018-07-10T13:03:42.013Z,86.50
2018-07-10T13:06:11.074Z,86.20
2018-07-10T13:08:40.420Z,87.50
2018-07-10T13:11:09.631Z,89.20
2018-07-10T13:13:39.015Z,90.60
2018-07-10T13:16:08.360Z,91.20
2018-07-10T13:18:37.721Z,91.80
2018-07-10T13:21:06.826Z,91.80
2018-07-10T13:23:36.002Z,92.90
2018-07-10T13:26:05.385Z,93.90
2018-07-10T13:28:34.727Z,94.60
2018-07-10T13:31:04.129Z,95.30
2018-07-10T13:33:33.595Z,96.10
2018-07-10T13:36:02.936Z,97.20
2018-07-10T13:38:32.073Z,97.40
2018-07-10T13:41:02.768Z,97.50
2018-07-10T13:43:31.943Z,97.80
2018-07-10T13:46:01.156Z,97.40
2018-07-10T13:48:30.575Z,96.90
2018-07-10T13:50:59.704Z,96.70
2018-07-10T13:53:29.053Z,96.00
2018-07-10T13:55:58.120Z,95.00
2018-07-10T13:58:30.482Z,93.20
2018-07-10T14:01:05.520Z,92.20
2018-07-10T14:03:35.492Z,92.30
2018-07-10T14:06:05.441Z,93.10
2018-07-10T14:08:34.949Z,93.60
2018-07-10T14:11:04.437Z,93.40
2018-07-10T14:13:33.805Z,93.20
2018-07-10T14:16:03.419Z,93.00
2018-07-10T14:18:33.002Z,93.40
2018-07-10T14:21:05.864Z,93.60
2018-07-10T14:23:35.356Z,93.60
2018-07-10T14:26:05.071Z,93.90
2018-07-10T14:28:34.693Z,93.10
2018-07-10T14:31:04.072Z,92.70
2018-07-10T14:33:33.216Z,92.50
2018-07-10T14:36:02.631Z,92.10
2018-07-10T14:38:32.241Z,91.80
2018-07-10T14:41:04.009Z,90.90
2018-07-10T14:43:35.165Z,90.90
2018-07-10T14:46:12.925Z,90.90
2018-07-10T14:48:52.475Z,90.90
2018-07-10T14:51:29.148Z,91.20
2018-07-10T14:53:58.583Z,91.20
2018-07-10T14:56:29.076Z,91.40
2018-07-10T14:58:58.417Z,91.50
2018-07-10T15:01:27.993Z,91.20
2018-07-10T15:03:57.690Z,90.10
2018-07-10T15:06:27.056Z,90.50
2018-07-10T15:08:56.602Z,90.50
2018-07-10T15:11:25.720Z,89.80
2018-07-10T15:14:03.096Z,90.10
2018-07-10T15:16:38.007Z,89.10
2018-07-10T15:19:08.510Z,88.80
2018-07-10T15:21:38.095Z,90.30
2018-07-10T15:24:09.145Z,88.40
2018-07-10T15:26:38.220Z,88.10
2018-07-10T15:29:07.811Z,89.10
2018-07-10T15:31:37.665Z,88.60
2018-07-10T15:34:06.974Z,88.70
2018-07-10T15:36:36.217Z,87.80
2018-07-10T15:39:05.768Z,87.30
2018-07-10T15:41:34.975Z,87.20
2018-07-10T15:44:04.050Z,87.60
2018-07-10T15:46:33.201Z,86.60
2018-07-10T15:49:02.762Z,87.10
2018-07-10T15:51:32.538Z,87.90
2018-07-10T15:54:01.945Z,88.30
2018-07-10T15:56:31.129Z,87.80
2018-07-10T15:59:00.713Z,88.90
2018-07-10T16:01:30.399Z,90.10
2018-07-10T16:03:59.799Z,89.60
2018-07-10T16:06:30.793Z,89.40
2018-07-10T16:09:06.508Z,89.80
2018-07-10T16:11:36.582Z,90.10
2018-07-10T16:14:06.569Z,90.10
2018-07-10T16:16:36.622Z,90.50
2018-07-10T16:19:09.346Z,90.80
2018-07-10T16:21:43.735Z,91.00
2018-07-10T16:24:12.869Z,91.50
2018-07-10T16:26:41.998Z,92.00
2018-07-10T16:29:13.821Z,92.80
2018-07-10T16:31:43.668Z,93.10
2018-07-10T16:34:12.905Z,92.90
2018-07-10T16:36:42.291Z,92.50
2018-07-10T16:39:11.719Z,92.40
2018-07-10T16:41:46.197Z,92.50
2018-07-10T16:44:15.314Z,92.30
2018-07-10T16:46:47.801Z,92.30
2018-07-10T16:49:23.299Z,92.10
2018-07-10T16:53:01.289Z,92.90
2018-07-10T16:55:30.452Z,93.40
2018-07-10T16:57:59.914Z,93.60
2018-07-10T17:00:30.816Z,93.60
2018-07-10T17:03:00.494Z,93.80
2018-07-10T17:05:30.075Z,93.90
2018-07-10T17:08:00.145Z,94.30
2018-07-10T17:10:30.001Z,95.20
2018-07-10T17:12:59.881Z,96.00
2018-07-10T17:15:29.396Z,96.20
2018-07-10T17:17:58.741Z,96.20
2018-07-10T17:20:28.163Z,96.40
2018-07-10T17:22:58.121Z,96.50
2018-07-10T17:25:27.517Z,96.50
2018-07-10T17:27:57.064Z,96.80
2018-07-10T17:30:26.968Z,95.80
2018-07-10T17:32:56.196Z,96.60
2018-07-10T17:35:26.037Z,97.00
2018-07-10T17:37:55.348Z,98.00
2018-07-10T17:40:24.532Z,98.40
2018-07-10T17:42:54.396Z,98.90
2018-07-10T17:45:24.517Z,99.30
2018-07-10T17:47:53.965Z,99.90
2018-07-10T17:50:23.256Z,99.90
2018-07-10T17:52:53.133Z,99.90
2018-07-10T17:55:23.256Z,99.90
2018-07-10T17:57:56.673Z,99.90
2018-07-10T18:00:26.347Z,99.90
2018-07-10T18:02:55.960Z,99.90
2018-07-10T18:05:25.661Z,99.90
2018-07-10T18:07:55.181Z,99.90
2018-07-10T18:10:25.523Z,99.90
2018-07-10T18:12:55.214Z,99.90
2018-07-10T18:15:24.930Z,99.90
2018-07-10T18:17:54.393Z,99.90
2018-07-10T18:20:24.926Z,99.90
2018-07-10T18:22:54.567Z,99.90
2018-07-10T18:25:24.180Z,99.90
2018-07-10T18:27:53.344Z,99.90
2018-07-10T18:30:22.572Z,99.90
2018-07-10T18:32:52.064Z,99.90
2018-07-10T18:35:21.492Z,99.90
2018-07-10T18:37:50.893Z,99.90
2018-07-10T18:40:20.326Z,99.90
2018-07-10T18:42:49.488Z,99.90
2018-07-10T18:45:18.845Z,99.90
2018-07-10T18:47:48.090Z,99.90
2018-07-10T18:50:17.497Z,99.90
2018-07-10T18:52:49.585Z,99.90
2018-07-10T18:55:18.770Z,99.90
2018-07-10T18:58:06.132Z,99.90
2018-07-10T19:01:03.822Z,99.90
2018-07-10T19:03:34.870Z,99.90
2018-07-10T19:06:13.187Z,99.90
2018-07-10T19:08:43.859Z,99.90
2018-07-10T19:11:18.045Z,99.90
2018-07-10T19:13:47.405Z,99.90
2018-07-10T19:16:16.600Z,99.90
2018-07-10T19:18:46.829Z,99.90
2018-07-10T19:21:21.654Z,99.90
2018-07-10T19:23:51.777Z,99.90
2018-07-10T19:26:25.462Z,99.90
2018-07-10T19:29:05.057Z,99.90
2018-07-10T19:31:35.197Z,99.90
2018-07-10T19:34:04.388Z,99.90
2018-07-10T19:36:33.955Z,99.90
2018-07-10T19:39:07.295Z,99.90
2018-07-10T19:41:36.549Z,99.90
2018-07-10T19:44:05.714Z,99.90
2018-07-10T19:46:36.110Z,99.90
2018-07-10T19:49:06.055Z,99.90
2018-07-10T19:51:35.778Z,99.90
2018-07-10T19:54:07.591Z,99.90
2018-07-10T19:56:37.413Z,99.90
2018-07-10T19:59:09.053Z,99.90
2018-07-10T20:01:45.175Z,99.90
2018-07-10T20:04:18.522Z,99.90
2018-07-10T20:07:59.604Z,99.90
2018-07-10T20:10:35.957Z,99.90
2018-07-10T20:13:40.123Z,99.90
2018-07-10T20:16:12.269Z,99.90
2018-07-10T20:19:51.625Z,99.90
2018-07-10T20:22:31.923Z,99.90
2018-07-10T20:25:07.781Z,99.90
2018-07-10T20:27:51.017Z,99.90
2018-07-10T20:31:29.240Z,99.90
2018-07-10T20:34:11.133Z,99.90
2018-07-10T20:36:43.792Z,99.90
2018-07-10T20:39:13.541Z,99.90
2018-07-10T20:44:18.909Z,99.90
2018-07-10T20:46:59.192Z,99.90
2018-07-10T20:50:38.406Z,99.90
2018-07-10T20:53:18.988Z,99.90
2018-07-10T20:55:53.231Z,99.90
2018-07-10T20:58:24.314Z,99.90
2018-07-10T21:01:02.296Z,99.90
2018-07-10T21:03:47.790Z,99.90
2018-07-10T21:06:23.643Z,99.90
2018-07-10T21:09:06.176Z,99.90
2018-07-10T21:12:11.613Z,99.90
2018-07-10T21:15:01.992Z,99.90
2018-07-10T21:17:53.309Z,99.90
2018-07-10T21:21:33.783Z,99.90
2018-07-10T21:24:22.867Z,99.90
2018-07-10T21:26:59.868Z,99.90
2018-07-10T21:31:08.334Z,99.90
2018-07-10T21:33:51.510Z,99.90
2018-07-10T21:36:26.148Z,99.90
2018-07-10T21:39:04.185Z,99.90
2018-07-10T21:41:46.284Z,99.90
2018-07-10T21:44:31.200Z,99.90
2018-07-10T21:47:03.585Z,99.90
2018-07-10T21:49:42.785Z,99.90
2018-07-10T21:52:12.411Z,99.90
2018-07-10T21:54:42.203Z,99.90
2018-07-10T21:57:12.783Z,99.90
2018-07-10T21:59:46.384Z,99.90
2018-07-10T22:02:15.849Z,99.90
2018-07-10T22:04:45.915Z,99.90
2018-07-10T22:07:16.120Z,99.90
2018-07-10T22:09:45.530Z,99.90
2018-07-10T22:12:19.827Z,99.90
2018-07-10T22:14:49.245Z,99.90
2018-07-10T22:19:52.325Z,99.90
2018-07-10T22:22:25.213Z,99.90
2018-07-10T22:24:57.023Z,99.90
2018-07-10T22:27:27.033Z,99.90
2018-07-10T22:32:43.151Z,99.90
2018-07-10T22:35:15.990Z,99.90
2018-07-10T22:37:46.064Z,99.90
2018-07-10T22:40:17.050Z,99.90
2018-07-10T22:42:47.014Z,99.90
2018-07-10T22:45:18.393Z,99.90
2018-07-10T22:47:48.282Z,99.90
2018-07-10T22:50:20.997Z,99.90
2018-07-10T22:52:57.008Z,99.90
2018-07-10T22:55:29.838Z,99.90
2018-07-10T22:58:01.499Z,99.90
2018-07-10T23:00:33.143Z,99.90
2018-07-10T23:03:23.895Z,99.90
2018-07-10T23:05:54.455Z,99.90
2018-07-10T23:08:32.779Z,99.90
2018-07-10T23:11:03.737Z,99.90
2018-07-10T23:13:33.807Z,99.90
2018-07-10T23:16:02.712Z,99.90
2018-07-10T23:18:31.823Z,99.90
2018-07-10T23:21:01.022Z,99.90
2018-07-10T23:23:29.933Z,99.90
2018-07-10T23:25:59.332Z,99.90
2018-07-10T23:28:30.789Z,99.90
2018-07-10T23:31:00.295Z,99.90
2018-07-10T23:33:29.551Z,99.90
2018-07-10T23:36:01.097Z,99.90
2018-07-10T23:38:40.268Z,99.90
2018-07-10T23:41:17.929Z,99.90
2018-07-10T23:43:48.732Z,99.90
2018-07-10T23:46:30.078Z,99.90
2018-07-10T23:49:12.553Z,99.90
2018-07-10T23:51:53.695Z,99.90
2018-07-10T23:54:23.008Z,99.90
2018-07-10T23:56:52.965Z,99.90
2018-07-10T23:59:22.854Z,99.90
